sensor_id;sensor_type;location;lat;lon;timestamp;P1;durP1;ratioP1;P2;durP2;ratioP2
70477;SDS011;57956;53.362;-1.518;2022-09-09T00:01:34;8.13;;;2.23;;
70477;SDS011;57956;53.362;-1.518;2022-09-09T00:04:20;6.30;;;2.07;;
70477;SDS011;57956;53.362;-1.518;2022-09-09T00:07:13;6.93;;;2.13;;
70477;SDS011;57956;53.362;-1.518;2022-09-09T00:09:45;7.10;;;2.10;;
70477;SDS011;57956;53.362;-1.518;2022-09-09T00:12:12;11.98;;;2.13;;
70477;SDS011;57956;53.362;-1.518;2022-09-09T00:14:51;7.55;;;1.65;;
70477;SDS011;57956;53.362;-1.518;2022-09-09T00:17:25;8.87;;;2.40;;
70477;SDS011;57956;53.362;-1.518;2022-09-09T00:22:35;4.68;;;1.60;;
70477;SDS011;57956;53.362;-1.518;2022-09-09T00:25:19;13.05;;;1.67;;
70477;SDS011;57956;53.362;-1.518;2022-09-09T00:27:48;5.47;;;1.63;;
70477;SDS011;57956;53.362;-1.518;2022-09-09T00:32:41;7.65;;;2.83;;
70477;SDS011;57956;53.362;-1.518;2022-09-09T00:35:21;11.17;;;2.70;;
70477;SDS011;57956;53.362;-1.518;2022-09-09T00:37:48;9.95;;;2.55;;
70477;SDS011;57956;53.362;-1.518;2022-09-09T00:40:23;9.05;;;3.03;;
70477;SDS011;57956;53.362;-1.518;2022-09-09T00:42:58;7.70;;;2.55;;
70477;SDS011;57956;53.362;-1.518;2022-09-09T00:48:07;9.00;;;2.00;;
70477;SDS011;57956;53.362;-1.518;2022-09-09T00:58:13;9.02;;;2.22;;
70477;SDS011;57956;53.362;-1.518;2022-09-09T01:00:45;7.87;;;2.27;;
70477;SDS011;57956;53.362;-1.518;2022-09-09T01:10:58;6.67;;;2.43;;
70477;SDS011;57956;53.362;-1.518;2022-09-09T01:13:25;9.13;;;2.42;;
70477;SDS011;57956;53.362;-1.518;2022-09-09T01:15:51;8.50;;;2.90;;
70477;SDS011;57956;53.362;-1.518;2022-09-09T01:18:19;6.80;;;2.13;;
70477;SDS011;57956;53.362;-1.518;2022-09-09T01:26:10;8.88;;;2.88;;
70477;SDS011;57956;53.362;-1.518;2022-09-09T01:28:38;8.30;;;1.83;;
70477;SDS011;57956;53.362;-1.518;2022-09-09T01:31:04;10.75;;;2.17;;
70477;SDS011;57956;53.362;-1.518;2022-09-09T01:33:31;7.33;;;1.47;;
70477;SDS011;57956;53.362;-1.518;2022-09-09T01:36:00;8.80;;;2.35;;
70477;SDS011;57956;53.362;-1.518;2022-09-09T01:38:27;7.35;;;2.08;;
70477;SDS011;57956;53.362;-1.518;2022-09-09T01:40:53;10.07;;;3.03;;
70477;SDS011;57956;53.362;-1.518;2022-09-09T01:43:21;7.85;;;2.20;;
70477;SDS011;57956;53.362;-1.518;2022-09-09T01:45:48;6.57;;;1.63;;
70477;SDS011;57956;53.362;-1.518;2022-09-09T01:48:14;6.50;;;1.73;;
70477;SDS011;57956;53.362;-1.518;2022-09-09T01:50:39;7.35;;;2.00;;
70477;SDS011;57956;53.362;-1.518;2022-09-09T01:53:05;7.57;;;2.47;;
70477;SDS011;57956;53.362;-1.518;2022-09-09T01:55:38;13.97;;;3.57;;
70477;SDS011;57956;53.362;-1.518;2022-09-09T02:00:32;8.73;;;2.28;;
70477;SDS011;57956;53.362;-1.518;2022-09-09T02:08:00;7.23;;;2.17;;
70477;SDS011;57956;53.362;-1.518;2022-09-09T02:13:00;6.50;;;0.87;;
70477;SDS011;57956;53.362;-1.518;2022-09-09T02:15:29;6.25;;;1.95;;
70477;SDS011;57956;53.362;-1.518;2022-09-09T02:17:56;12.25;;;2.40;;
70477;SDS011;57956;53.362;-1.518;2022-09-09T02:20:23;7.55;;;1.77;;
70477;SDS011;57956;53.362;-1.518;2022-09-09T02:22:50;3.77;;;1.30;;
70477;SDS011;57956;53.362;-1.518;2022-09-09T02:25:17;6.07;;;1.67;;
70477;SDS011;57956;53.362;-1.518;2022-09-09T02:27:43;9.68;;;2.92;;
70477;SDS011;57956;53.362;-1.518;2022-09-09T02:30:09;8.75;;;1.85;;
70477;SDS011;57956;53.362;-1.518;2022-09-09T02:32:35;12.68;;;2.95;;
70477;SDS011;57956;53.362;-1.518;2022-09-09T02:35:05;17.07;;;2.73;;
70477;SDS011;57956;53.362;-1.518;2022-09-09T02:37:33;7.20;;;1.67;;
70477;SDS011;57956;53.362;-1.518;2022-09-09T02:40:01;8.73;;;1.63;;
70477;SDS011;57956;53.362;-1.518;2022-09-09T02:42:26;16.00;;;1.92;;
70477;SDS011;57956;53.362;-1.518;2022-09-09T02:44:52;8.03;;;2.50;;
70477;SDS011;57956;53.362;-1.518;2022-09-09T02:47:24;6.47;;;1.53;;
70477;SDS011;57956;53.362;-1.518;2022-09-09T02:52:20;7.53;;;1.45;;
70477;SDS011;57956;53.362;-1.518;2022-09-09T02:54:47;7.30;;;1.80;;
70477;SDS011;57956;53.362;-1.518;2022-09-09T02:57:17;7.23;;;2.27;;
70477;SDS011;57956;53.362;-1.518;2022-09-09T02:59:44;4.90;;;1.25;;
70477;SDS011;57956;53.362;-1.518;2022-09-09T03:02:10;5.72;;;1.65;;
70477;SDS011;57956;53.362;-1.518;2022-09-09T03:04:36;7.13;;;1.80;;
70477;SDS011;57956;53.362;-1.518;2022-09-09T03:07:01;7.22;;;1.58;;
70477;SDS011;57956;53.362;-1.518;2022-09-09T03:09:28;5.50;;;1.80;;
70477;SDS011;57956;53.362;-1.518;2022-09-09T03:11:53;5.40;;;1.57;;
70477;SDS011;57956;53.362;-1.518;2022-09-09T03:14:20;7.80;;;2.70;;
70477;SDS011;57956;53.362;-1.518;2022-09-09T03:16:46;10.50;;;2.00;;
70477;SDS011;57956;53.362;-1.518;2022-09-09T03:19:11;9.85;;;2.08;;
70477;SDS011;57956;53.362;-1.518;2022-09-09T03:21:37;7.03;;;2.07;;
70477;SDS011;57956;53.362;-1.518;2022-09-09T03:24:02;6.47;;;1.90;;
70477;SDS011;57956;53.362;-1.518;2022-09-09T03:26:28;8.38;;;1.58;;
70477;SDS011;57956;53.362;-1.518;2022-09-09T03:28:54;7.07;;;2.47;;
70477;SDS011;57956;53.362;-1.518;2022-09-09T03:31:19;5.33;;;2.77;;
70477;SDS011;57956;53.362;-1.518;2022-09-09T03:33:44;6.27;;;1.93;;
70477;SDS011;57956;53.362;-1.518;2022-09-09T03:36:10;5.65;;;1.20;;
70477;SDS011;57956;53.362;-1.518;2022-09-09T03:38:35;7.10;;;1.87;;
70477;SDS011;57956;53.362;-1.518;2022-09-09T03:41:00;7.13;;;2.23;;
70477;SDS011;57956;53.362;-1.518;2022-09-09T03:43:27;8.27;;;2.03;;
70477;SDS011;57956;53.362;-1.518;2022-09-09T03:45:53;6.05;;;2.05;;
70477;SDS011;57956;53.362;-1.518;2022-09-09T03:48:22;6.88;;;2.35;;
70477;SDS011;57956;53.362;-1.518;2022-09-09T03:50:48;9.43;;;2.63;;
70477;SDS011;57956;53.362;-1.518;2022-09-09T03:53:13;5.25;;;1.73;;
70477;SDS011;57956;53.362;-1.518;2022-09-09T03:55:39;7.82;;;2.65;;
70477;SDS011;57956;53.362;-1.518;2022-09-09T03:58:08;9.13;;;2.57;;
70477;SDS011;57956;53.362;-1.518;2022-09-09T04:00:33;6.37;;;1.67;;
70477;SDS011;57956;53.362;-1.518;2022-09-09T04:02:58;8.83;;;3.20;;
70477;SDS011;57956;53.362;-1.518;2022-09-09T04:05:23;3.87;;;1.07;;
70477;SDS011;57956;53.362;-1.518;2022-09-09T04:07:49;4.30;;;1.47;;
70477;SDS011;57956;53.362;-1.518;2022-09-09T04:10:16;5.30;;;2.03;;
70477;SDS011;57956;53.362;-1.518;2022-09-09T04:12:41;5.97;;;1.60;;
70477;SDS011;57956;53.362;-1.518;2022-09-09T04:15:07;4.60;;;1.27;;
70477;SDS011;57956;53.362;-1.518;2022-09-09T04:17:32;6.22;;;1.67;;
70477;SDS011;57956;53.362;-1.518;2022-09-09T04:19:58;6.47;;;1.83;;
70477;SDS011;57956;53.362;-1.518;2022-09-09T04:22:23;6.13;;;1.50;;
70477;SDS011;57956;53.362;-1.518;2022-09-09T04:24:48;4.30;;;1.33;;
70477;SDS011;57956;53.362;-1.518;2022-09-09T04:27:14;6.43;;;1.83;;
70477;SDS011;57956;53.362;-1.518;2022-09-09T04:29:39;3.37;;;1.00;;
70477;SDS011;57956;53.362;-1.518;2022-09-09T04:32:04;5.27;;;1.67;;
70477;SDS011;57956;53.362;-1.518;2022-09-09T04:34:30;7.80;;;1.20;;
70477;SDS011;57956;53.362;-1.518;2022-09-09T04:36:56;5.00;;;1.55;;
70477;SDS011;57956;53.362;-1.518;2022-09-09T04:39:22;6.30;;;1.52;;
70477;SDS011;57956;53.362;-1.518;2022-09-09T04:41:47;7.77;;;2.30;;
70477;SDS011;57956;53.362;-1.518;2022-09-09T04:44:13;4.30;;;0.98;;
70477;SDS011;57956;53.362;-1.518;2022-09-09T04:46:38;5.30;;;1.60;;
70477;SDS011;57956;53.362;-1.518;2022-09-09T04:49:03;3.90;;;1.60;;
70477;SDS011;57956;53.362;-1.518;2022-09-09T04:51:30;8.60;;;2.10;;
70477;SDS011;57956;53.362;-1.518;2022-09-09T04:53:56;4.00;;;1.13;;
70477;SDS011;57956;53.362;-1.518;2022-09-09T04:56:21;6.30;;;2.03;;
70477;SDS011;57956;53.362;-1.518;2022-09-09T04:58:47;5.50;;;1.77;;
70477;SDS011;57956;53.362;-1.518;2022-09-09T05:01:13;4.77;;;1.37;;
70477;SDS011;57956;53.362;-1.518;2022-09-09T05:03:39;9.13;;;2.45;;
70477;SDS011;57956;53.362;-1.518;2022-09-09T05:08:30;4.57;;;1.43;;
70477;SDS011;57956;53.362;-1.518;2022-09-09T05:10:55;4.37;;;1.70;;
70477;SDS011;57956;53.362;-1.518;2022-09-09T05:13:20;8.57;;;1.70;;
70477;SDS011;57956;53.362;-1.518;2022-09-09T05:15:54;5.65;;;1.63;;
70477;SDS011;57956;53.362;-1.518;2022-09-09T05:18:19;9.52;;;1.92;;
70477;SDS011;57956;53.362;-1.518;2022-09-09T05:20:44;3.43;;;1.30;;
70477;SDS011;57956;53.362;-1.518;2022-09-09T05:23:10;5.77;;;1.50;;
70477;SDS011;57956;53.362;-1.518;2022-09-09T05:25:38;6.22;;;1.70;;
70477;SDS011;57956;53.362;-1.518;2022-09-09T05:28:03;5.37;;;1.27;;
70477;SDS011;57956;53.362;-1.518;2022-09-09T05:30:28;6.50;;;1.60;;
70477;SDS011;57956;53.362;-1.518;2022-09-09T05:32:57;4.87;;;2.30;;
70477;SDS011;57956;53.362;-1.518;2022-09-09T05:35:22;8.30;;;1.58;;
70477;SDS011;57956;53.362;-1.518;2022-09-09T05:37:48;4.40;;;1.67;;
70477;SDS011;57956;53.362;-1.518;2022-09-09T05:40:13;3.83;;;0.90;;
70477;SDS011;57956;53.362;-1.518;2022-09-09T05:42:38;5.17;;;1.13;;
70477;SDS011;57956;53.362;-1.518;2022-09-09T05:45:04;6.25;;;2.00;;
70477;SDS011;57956;53.362;-1.518;2022-09-09T05:47:32;7.30;;;1.77;;
70477;SDS011;57956;53.362;-1.518;2022-09-09T05:49:58;5.87;;;2.03;;
70477;SDS011;57956;53.362;-1.518;2022-09-09T05:52:23;3.27;;;0.70;;
70477;SDS011;57956;53.362;-1.518;2022-09-09T05:54:50;6.40;;;1.85;;
70477;SDS011;57956;53.362;-1.518;2022-09-09T05:57:16;5.30;;;1.20;;
70477;SDS011;57956;53.362;-1.518;2022-09-09T05:59:41;8.57;;;2.27;;
70477;SDS011;57956;53.362;-1.518;2022-09-09T06:02:07;8.38;;;2.35;;
70477;SDS011;57956;53.362;-1.518;2022-09-09T06:04:33;5.90;;;1.58;;
70477;SDS011;57956;53.362;-1.518;2022-09-09T06:06:59;6.03;;;1.77;;
70477;SDS011;57956;53.362;-1.518;2022-09-09T06:09:24;6.27;;;2.13;;
70477;SDS011;57956;53.362;-1.518;2022-09-09T06:11:49;3.77;;;1.20;;
70477;SDS011;57956;53.362;-1.518;2022-09-09T06:14:15;6.78;;;2.28;;
70477;SDS011;57956;53.362;-1.518;2022-09-09T06:16:42;5.17;;;1.70;;
70477;SDS011;57956;53.362;-1.518;2022-09-09T06:19:09;5.80;;;2.00;;
70477;SDS011;57956;53.362;-1.518;2022-09-09T06:21:35;4.72;;;1.55;;
70477;SDS011;57956;53.362;-1.518;2022-09-09T06:24:04;6.97;;;2.20;;
70477;SDS011;57956;53.362;-1.518;2022-09-09T06:26:33;5.55;;;1.77;;
70477;SDS011;57956;53.362;-1.518;2022-09-09T06:28:59;6.68;;;2.03;;
70477;SDS011;57956;53.362;-1.518;2022-09-09T06:31:25;4.15;;;1.45;;
70477;SDS011;57956;53.362;-1.518;2022-09-09T06:33:52;9.63;;;1.73;;
70477;SDS011;57956;53.362;-1.518;2022-09-09T06:38:43;10.13;;;2.53;;
70477;SDS011;57956;53.362;-1.518;2022-09-09T06:41:09;7.45;;;2.35;;
70477;SDS011;57956;53.362;-1.518;2022-09-09T06:43:35;11.00;;;2.25;;
70477;SDS011;57956;53.362;-1.518;2022-09-09T06:46:04;12.30;;;2.53;;
70477;SDS011;57956;53.362;-1.518;2022-09-09T06:48:31;5.78;;;1.85;;
70477;SDS011;57956;53.362;-1.518;2022-09-09T06:53:31;10.57;;;2.33;;
70477;SDS011;57956;53.362;-1.518;2022-09-09T06:55:59;5.82;;;1.55;;
70477;SDS011;57956;53.362;-1.518;2022-09-09T06:58:25;6.03;;;1.70;;
70477;SDS011;57956;53.362;-1.518;2022-09-09T07:00:50;6.47;;;1.58;;
70477;SDS011;57956;53.362;-1.518;2022-09-09T07:03:15;5.57;;;1.47;;
70477;SDS011;57956;53.362;-1.518;2022-09-09T07:05:41;10.57;;;2.77;;
70477;SDS011;57956;53.362;-1.518;2022-09-09T07:08:06;7.87;;;1.60;;
70477;SDS011;57956;53.362;-1.518;2022-09-09T07:10:31;6.27;;;2.57;;
70477;SDS011;57956;53.362;-1.518;2022-09-09T07:12:57;10.20;;;1.50;;
70477;SDS011;57956;53.362;-1.518;2022-09-09T07:15:22;7.47;;;1.33;;
70477;SDS011;57956;53.362;-1.518;2022-09-09T07:17:48;5.90;;;1.50;;
70477;SDS011;57956;53.362;-1.518;2022-09-09T07:20:13;5.53;;;1.43;;
70477;SDS011;57956;53.362;-1.518;2022-09-09T07:22:39;6.13;;;1.55;;
70477;SDS011;57956;53.362;-1.518;2022-09-09T07:25:05;6.17;;;2.00;;
70477;SDS011;57956;53.362;-1.518;2022-09-09T07:27:30;6.15;;;1.67;;
70477;SDS011;57956;53.362;-1.518;2022-09-09T07:29:56;6.70;;;1.70;;
70477;SDS011;57956;53.362;-1.518;2022-09-09T07:32:22;6.35;;;1.70;;
70477;SDS011;57956;53.362;-1.518;2022-09-09T07:34:48;7.73;;;1.70;;
70477;SDS011;57956;53.362;-1.518;2022-09-09T07:37:15;8.18;;;3.40;;
70477;SDS011;57956;53.362;-1.518;2022-09-09T07:39:41;4.95;;;1.63;;
70477;SDS011;57956;53.362;-1.518;2022-09-09T07:42:07;4.40;;;1.20;;
70477;SDS011;57956;53.362;-1.518;2022-09-09T07:44:32;6.47;;;2.22;;
70477;SDS011;57956;53.362;-1.518;2022-09-09T07:47:00;6.20;;;1.50;;
70477;SDS011;57956;53.362;-1.518;2022-09-09T07:49:27;5.20;;;1.65;;
70477;SDS011;57956;53.362;-1.518;2022-09-09T07:51:52;7.60;;;1.63;;
70477;SDS011;57956;53.362;-1.518;2022-09-09T07:54:19;6.10;;;1.70;;
70477;SDS011;57956;53.362;-1.518;2022-09-09T07:56:48;7.10;;;1.73;;
70477;SDS011;57956;53.362;-1.518;2022-09-09T07:59:14;6.87;;;2.87;;
70477;SDS011;57956;53.362;-1.518;2022-09-09T08:01:40;4.45;;;1.55;;
70477;SDS011;57956;53.362;-1.518;2022-09-09T08:04:07;3.88;;;1.35;;
70477;SDS011;57956;53.362;-1.518;2022-09-09T08:06:37;7.33;;;2.20;;
70477;SDS011;57956;53.362;-1.518;2022-09-09T08:09:03;5.07;;;1.52;;
70477;SDS011;57956;53.362;-1.518;2022-09-09T08:11:29;4.20;;;1.52;;
70477;SDS011;57956;53.362;-1.518;2022-09-09T08:13:55;7.17;;;1.83;;
70477;SDS011;57956;53.362;-1.518;2022-09-09T08:16:24;6.10;;;1.40;;
70477;SDS011;57956;53.362;-1.518;2022-09-09T08:18:50;3.95;;;1.00;;
70477;SDS011;57956;53.362;-1.518;2022-09-09T08:21:18;6.32;;;0.65;;
70477;SDS011;57956;53.362;-1.518;2022-09-09T08:23:44;9.20;;;1.77;;
70477;SDS011;57956;53.362;-1.518;2022-09-09T08:28:36;8.47;;;2.07;;
70477;SDS011;57956;53.362;-1.518;2022-09-09T08:31:05;4.10;;;1.35;;
70477;SDS011;57956;53.362;-1.518;2022-09-09T08:33:30;2.07;;;0.63;;
70477;SDS011;57956;53.362;-1.518;2022-09-09T08:35:55;3.27;;;1.03;;
70477;SDS011;57956;53.362;-1.518;2022-09-09T08:38:21;4.30;;;0.60;;
70477;SDS011;57956;53.362;-1.518;2022-09-09T08:40:46;4.00;;;1.50;;
70477;SDS011;57956;53.362;-1.518;2022-09-09T08:43:14;5.70;;;1.75;;
70477;SDS011;57956;53.362;-1.518;2022-09-09T08:45:50;2.60;;;1.02;;
70477;SDS011;57956;53.362;-1.518;2022-09-09T08:48:52;3.20;;;1.00;;
70477;SDS011;57956;53.362;-1.518;2022-09-09T08:51:10;3.67;;;1.15;;
70477;SDS011;57956;53.362;-1.518;2022-09-09T08:53:44;3.50;;;1.33;;
70477;SDS011;57956;53.362;-1.518;2022-09-09T08:56:12;2.92;;;0.82;;
70477;SDS011;57956;53.362;-1.518;2022-09-09T08:58:49;4.72;;;1.08;;
70477;SDS011;57956;53.362;-1.518;2022-09-09T09:09:06;2.38;;;0.50;;
70477;SDS011;57956;53.362;-1.518;2022-09-09T09:11:34;4.78;;;1.30;;
70477;SDS011;57956;53.362;-1.518;2022-09-09T09:14:03;2.77;;;0.87;;
70477;SDS011;57956;53.362;-1.518;2022-09-09T09:19:12;3.30;;;0.70;;
70477;SDS011;57956;53.362;-1.518;2022-09-09T09:21:39;3.72;;;0.93;;
70477;SDS011;57956;53.362;-1.518;2022-09-09T09:24:09;3.22;;;0.88;;
70477;SDS011;57956;53.362;-1.518;2022-09-09T09:26:40;3.53;;;0.67;;
70477;SDS011;57956;53.362;-1.518;2022-09-09T09:29:10;1.77;;;0.40;;
70477;SDS011;57956;53.362;-1.518;2022-09-09T09:31:36;2.88;;;0.63;;
70477;SDS011;57956;53.362;-1.518;2022-09-09T09:34:02;4.97;;;0.63;;
70477;SDS011;57956;53.362;-1.518;2022-09-09T09:36:34;4.30;;;0.80;;
70477;SDS011;57956;53.362;-1.518;2022-09-09T09:39:01;1.77;;;0.38;;
70477;SDS011;57956;53.362;-1.518;2022-09-09T09:41:34;2.30;;;0.93;;
70477;SDS011;57956;53.362;-1.518;2022-09-09T09:43:59;1.85;;;0.40;;
70477;SDS011;57956;53.362;-1.518;2022-09-09T09:46:26;2.13;;;0.60;;
70477;SDS011;57956;53.362;-1.518;2022-09-09T09:48:56;2.35;;;0.38;;
70477;SDS011;57956;53.362;-1.518;2022-09-09T09:51:22;1.50;;;0.22;;
70477;SDS011;57956;53.362;-1.518;2022-09-09T09:53:47;1.58;;;0.30;;
70477;SDS011;57956;53.362;-1.518;2022-09-09T09:56:14;2.23;;;0.47;;
70477;SDS011;57956;53.362;-1.518;2022-09-09T10:01:22;2.15;;;0.50;;
70477;SDS011;57956;53.362;-1.518;2022-09-09T10:03:52;2.55;;;0.60;;
70477;SDS011;57956;53.362;-1.518;2022-09-09T10:06:28;2.03;;;0.40;;
70477;SDS011;57956;53.362;-1.518;2022-09-09T10:08:54;2.13;;;0.55;;
70477;SDS011;57956;53.362;-1.518;2022-09-09T10:16:38;1.87;;;0.40;;
70477;SDS011;57956;53.362;-1.518;2022-09-09T10:19:09;2.35;;;0.80;;
70477;SDS011;57956;53.362;-1.518;2022-09-09T10:36:46;1.63;;;0.37;;
70477;SDS011;57956;53.362;-1.518;2022-09-09T10:42:08;3.00;;;0.85;;
70477;SDS011;57956;53.362;-1.518;2022-09-09T10:57:13;2.50;;;0.60;;
70477;SDS011;57956;53.362;-1.518;2022-09-09T10:59:43;1.77;;;0.30;;
70477;SDS011;57956;53.362;-1.518;2022-09-09T11:02:15;1.67;;;0.38;;
70477;SDS011;57956;53.362;-1.518;2022-09-09T11:04:48;1.47;;;0.27;;
70477;SDS011;57956;53.362;-1.518;2022-09-09T11:07:19;2.00;;;0.50;;
70477;SDS011;57956;53.362;-1.518;2022-09-09T11:09:49;3.05;;;0.38;;
70477;SDS011;57956;53.362;-1.518;2022-09-09T11:12:18;2.13;;;0.30;;
70477;SDS011;57956;53.362;-1.518;2022-09-09T11:14:54;1.92;;;0.40;;
70477;SDS011;57956;53.362;-1.518;2022-09-09T11:17:24;1.42;;;0.35;;
70477;SDS011;57956;53.362;-1.518;2022-09-09T11:19:52;2.23;;;0.40;;
70477;SDS011;57956;53.362;-1.518;2022-09-09T11:32:52;1.67;;;0.25;;
70477;SDS011;57956;53.362;-1.518;2022-09-09T11:38:15;1.20;;;0.20;;
70477;SDS011;57956;53.362;-1.518;2022-09-09T11:40:40;3.07;;;0.50;;
70477;SDS011;57956;53.362;-1.518;2022-09-09T11:43:10;1.50;;;0.30;;
70477;SDS011;57956;53.362;-1.518;2022-09-09T11:45:37;1.67;;;0.20;;
70477;SDS011;57956;53.362;-1.518;2022-09-09T11:48:04;1.65;;;0.20;;
70477;SDS011;57956;53.362;-1.518;2022-09-09T11:50:32;1.10;;;0.20;;
70477;SDS011;57956;53.362;-1.518;2022-09-09T11:53:05;1.30;;;0.20;;
70477;SDS011;57956;53.362;-1.518;2022-09-09T11:55:31;1.30;;;0.20;;
70477;SDS011;57956;53.362;-1.518;2022-09-09T12:00:28;2.20;;;0.30;;
70477;SDS011;57956;53.362;-1.518;2022-09-09T12:02:55;1.40;;;0.30;;
70477;SDS011;57956;53.362;-1.518;2022-09-09T12:05:21;1.83;;;0.30;;
70477;SDS011;57956;53.362;-1.518;2022-09-09T12:08:05;2.20;;;0.50;;
70477;SDS011;57956;53.362;-1.518;2022-09-09T12:10:34;1.50;;;0.20;;
70477;SDS011;57956;53.362;-1.518;2022-09-09T12:13:20;1.53;;;0.33;;
70477;SDS011;57956;53.362;-1.518;2022-09-09T12:15:51;2.13;;;0.40;;
70477;SDS011;57956;53.362;-1.518;2022-09-09T12:18:25;1.75;;;0.38;;
70477;SDS011;57956;53.362;-1.518;2022-09-09T12:21:38;1.70;;;0.40;;
70477;SDS011;57956;53.362;-1.518;2022-09-09T12:23:44;1.30;;;0.20;;
70477;SDS011;57956;53.362;-1.518;2022-09-09T12:33:53;1.42;;;0.22;;
70477;SDS011;57956;53.362;-1.518;2022-09-09T12:36:19;2.13;;;0.60;;
70477;SDS011;57956;53.362;-1.518;2022-09-09T12:38:46;2.63;;;0.40;;
70477;SDS011;57956;53.362;-1.518;2022-09-09T12:41:18;1.60;;;0.37;;
70477;SDS011;57956;53.362;-1.518;2022-09-09T12:43:44;1.65;;;0.30;;
70477;SDS011;57956;53.362;-1.518;2022-09-09T12:46:12;1.83;;;0.30;;
70477;SDS011;57956;53.362;-1.518;2022-09-09T12:48:39;1.83;;;0.60;;
70477;SDS011;57956;53.362;-1.518;2022-09-09T12:51:23;1.23;;;0.20;;
70477;SDS011;57956;53.362;-1.518;2022-09-09T12:53:50;1.47;;;0.20;;
70477;SDS011;57956;53.362;-1.518;2022-09-09T12:56:20;1.52;;;0.22;;
70477;SDS011;57956;53.362;-1.518;2022-09-09T12:58:46;1.10;;;0.20;;
70477;SDS011;57956;53.362;-1.518;2022-09-09T13:01:23;1.45;;;0.30;;
70477;SDS011;57956;53.362;-1.518;2022-09-09T13:03:49;2.08;;;0.40;;
70477;SDS011;57956;53.362;-1.518;2022-09-09T13:08:46;1.77;;;0.30;;
70477;SDS011;57956;53.362;-1.518;2022-09-09T13:11:13;1.90;;;0.32;;
70477;SDS011;57956;53.362;-1.518;2022-09-09T13:13:41;2.00;;;0.30;;
70477;SDS011;57956;53.362;-1.518;2022-09-09T13:16:15;6.17;;;0.40;;
70477;SDS011;57956;53.362;-1.518;2022-09-09T13:18:43;0.80;;;0.10;;
70477;SDS011;57956;53.362;-1.518;2022-09-09T13:21:17;1.00;;;0.20;;
70477;SDS011;57956;53.362;-1.518;2022-09-09T13:23:47;1.00;;;0.20;;
70477;SDS011;57956;53.362;-1.518;2022-09-09T13:26:23;0.90;;;0.10;;
70477;SDS011;57956;53.362;-1.518;2022-09-09T13:28:50;0.90;;;0.10;;
70477;SDS011;57956;53.362;-1.518;2022-09-09T13:31:35;1.20;;;0.20;;
70477;SDS011;57956;53.362;-1.518;2022-09-09T13:34:10;1.35;;;0.20;;
70477;SDS011;57956;53.362;-1.518;2022-09-09T13:36:35;0.90;;;0.10;;
70477;SDS011;57956;53.362;-1.518;2022-09-09T13:39:02;1.53;;;0.40;;
70477;SDS011;57956;53.362;-1.518;2022-09-09T13:43:53;0.97;;;0.10;;
70477;SDS011;57956;53.362;-1.518;2022-09-09T13:46:36;1.10;;;0.20;;
70477;SDS011;57956;53.362;-1.518;2022-09-09T13:49:17;1.30;;;0.20;;
70477;SDS011;57956;53.362;-1.518;2022-09-09T13:51:44;1.00;;;0.20;;
70477;SDS011;57956;53.362;-1.518;2022-09-09T13:54:10;1.20;;;0.20;;
70477;SDS011;57956;53.362;-1.518;2022-09-09T13:56:37;1.23;;;0.17;;
70477;SDS011;57956;53.362;-1.518;2022-09-09T13:59:03;1.57;;;0.30;;
70477;SDS011;57956;53.362;-1.518;2022-09-09T14:01:29;1.40;;;0.28;;
70477;SDS011;57956;53.362;-1.518;2022-09-09T14:03:55;1.00;;;0.20;;
70477;SDS011;57956;53.362;-1.518;2022-09-09T14:06:20;2.33;;;0.30;;
70477;SDS011;57956;53.362;-1.518;2022-09-09T14:08:47;0.80;;;0.15;;
70477;SDS011;57956;53.362;-1.518;2022-09-09T14:11:13;1.90;;;0.20;;
70477;SDS011;57956;53.362;-1.518;2022-09-09T14:13:39;1.17;;;0.20;;
70477;SDS011;57956;53.362;-1.518;2022-09-09T14:16:04;0.80;;;0.10;;
70477;SDS011;57956;53.362;-1.518;2022-09-09T14:18:29;1.33;;;0.30;;
70477;SDS011;57956;53.362;-1.518;2022-09-09T14:20:55;1.10;;;0.20;;
70477;SDS011;57956;53.362;-1.518;2022-09-09T14:23:20;1.00;;;0.10;;
70477;SDS011;57956;53.362;-1.518;2022-09-09T14:25:46;1.10;;;0.20;;
70477;SDS011;57956;53.362;-1.518;2022-09-09T14:28:12;1.40;;;0.20;;
70477;SDS011;57956;53.362;-1.518;2022-09-09T14:30:39;0.98;;;0.10;;
70477;SDS011;57956;53.362;-1.518;2022-09-09T14:33:05;1.23;;;0.20;;
70477;SDS011;57956;53.362;-1.518;2022-09-09T14:35:30;1.17;;;0.20;;
70477;SDS011;57956;53.362;-1.518;2022-09-09T14:37:55;1.07;;;0.20;;
70477;SDS011;57956;53.362;-1.518;2022-09-09T14:40:22;1.00;;;0.10;;
70477;SDS011;57956;53.362;-1.518;2022-09-09T14:42:47;0.90;;;0.10;;
70477;SDS011;57956;53.362;-1.518;2022-09-09T14:45:13;1.07;;;0.20;;
70477;SDS011;57956;53.362;-1.518;2022-09-09T14:47:38;0.90;;;0.10;;
70477;SDS011;57956;53.362;-1.518;2022-09-09T14:50:05;1.13;;;0.10;;
70477;SDS011;57956;53.362;-1.518;2022-09-09T14:52:31;1.17;;;0.30;;
70477;SDS011;57956;53.362;-1.518;2022-09-09T14:54:56;0.80;;;0.10;;
70477;SDS011;57956;53.362;-1.518;2022-09-09T14:57:22;0.80;;;0.10;;
70477;SDS011;57956;53.362;-1.518;2022-09-09T14:59:47;1.13;;;0.10;;
70477;SDS011;57956;53.362;-1.518;2022-09-09T15:02:14;1.00;;;0.10;;
70477;SDS011;57956;53.362;-1.518;2022-09-09T15:04:39;0.80;;;0.10;;
70477;SDS011;57956;53.362;-1.518;2022-09-09T15:07:04;1.30;;;0.20;;
70477;SDS011;57956;53.362;-1.518;2022-09-09T15:09:30;0.90;;;0.10;;
70477;SDS011;57956;53.362;-1.518;2022-09-09T15:11:55;4.00;;;0.20;;
70477;SDS011;57956;53.362;-1.518;2022-09-09T15:14:20;1.00;;;0.17;;
70477;SDS011;57956;53.362;-1.518;2022-09-09T15:16:45;1.40;;;0.23;;
70477;SDS011;57956;53.362;-1.518;2022-09-09T15:19:13;1.00;;;0.17;;
70477;SDS011;57956;53.362;-1.518;2022-09-09T15:21:39;1.20;;;0.28;;
70477;SDS011;57956;53.362;-1.518;2022-09-09T15:24:04;1.23;;;0.20;;
70477;SDS011;57956;53.362;-1.518;2022-09-09T15:26:30;1.10;;;0.20;;
70477;SDS011;57956;53.362;-1.518;2022-09-09T15:28:55;0.80;;;0.10;;
70477;SDS011;57956;53.362;-1.518;2022-09-09T15:31:24;1.17;;;0.17;;
70477;SDS011;57956;53.362;-1.518;2022-09-09T15:33:56;0.80;;;0.10;;
70477;SDS011;57956;53.362;-1.518;2022-09-09T15:38:54;0.87;;;0.10;;
70477;SDS011;57956;53.362;-1.518;2022-09-09T15:41:19;1.27;;;0.38;;
70477;SDS011;57956;53.362;-1.518;2022-09-09T15:43:45;1.00;;;0.20;;
70477;SDS011;57956;53.362;-1.518;2022-09-09T15:48:45;1.00;;;0.20;;
70477;SDS011;57956;53.362;-1.518;2022-09-09T15:51:11;1.00;;;0.10;;
70477;SDS011;57956;53.362;-1.518;2022-09-09T15:53:37;1.03;;;0.13;;
70477;SDS011;57956;53.362;-1.518;2022-09-09T15:56:04;1.30;;;0.20;;
70477;SDS011;57956;53.362;-1.518;2022-09-09T15:58:33;1.10;;;0.20;;
70477;SDS011;57956;53.362;-1.518;2022-09-09T16:01:02;0.98;;;0.13;;
70477;SDS011;57956;53.362;-1.518;2022-09-09T16:03:28;1.98;;;0.35;;
70477;SDS011;57956;53.362;-1.518;2022-09-09T16:05:54;1.17;;;0.20;;
70477;SDS011;57956;53.362;-1.518;2022-09-09T16:08:20;1.23;;;0.30;;
70477;SDS011;57956;53.362;-1.518;2022-09-09T16:10:45;1.00;;;0.17;;
70477;SDS011;57956;53.362;-1.518;2022-09-09T16:13:11;1.00;;;0.10;;
70477;SDS011;57956;53.362;-1.518;2022-09-09T16:15:38;1.08;;;0.10;;
70477;SDS011;57956;53.362;-1.518;2022-09-09T16:18:04;1.03;;;0.20;;
70477;SDS011;57956;53.362;-1.518;2022-09-09T16:20:29;1.03;;;0.10;;
70477;SDS011;57956;53.362;-1.518;2022-09-09T16:22:55;0.90;;;0.10;;
70477;SDS011;57956;53.362;-1.518;2022-09-09T16:25:22;1.20;;;0.20;;
70477;SDS011;57956;53.362;-1.518;2022-09-09T16:27:47;1.35;;;0.40;;
70477;SDS011;57956;53.362;-1.518;2022-09-09T16:30:12;1.43;;;0.30;;
70477;SDS011;57956;53.362;-1.518;2022-09-09T16:32:38;1.03;;;0.20;;
70477;SDS011;57956;53.362;-1.518;2022-09-09T16:35:03;1.10;;;0.20;;
70477;SDS011;57956;53.362;-1.518;2022-09-09T16:37:29;1.37;;;0.50;;
70477;SDS011;57956;53.362;-1.518;2022-09-09T16:39:54;1.27;;;0.30;;
70477;SDS011;57956;53.362;-1.518;2022-09-09T16:42:19;0.90;;;0.20;;
70477;SDS011;57956;53.362;-1.518;2022-09-09T16:44:44;1.47;;;0.20;;
70477;SDS011;57956;53.362;-1.518;2022-09-09T16:47:10;1.02;;;0.20;;
70477;SDS011;57956;53.362;-1.518;2022-09-09T16:49:36;1.20;;;0.20;;